sensor_id;sensor_type;location;lat;lon;timestamp;P1;P2;P0
56360;PMS7003;42611;51.132;13.588;2023-05-20T00:02:06;32.8;29.7;
56360;PMS7003;42611;51.132;13.588;2023-05-20T00:07:01;33.6;30.3;
56360;PMS7003;42611;51.132;13.588;2023-05-20T00:12:01;34.9;31.0;
56360;PMS7003;42611;51.132;13.588;2023-05-20T00:17:01;34.6;31.0;
56360;PMS7003;42611;51.132;13.588;2023-05-20T00:22:06;35.0;31.0;
56360;PMS7003;42611;51.132;13.588;2023-05-20T00:27:01;34.6;31.0;
56360;PMS7003;42611;51.132;13.588;2023-05-20T00:32:01;35.2;31.1;
56360;PMS7003;42611;51.132;13.588;2023-05-20T00:37:01;37.3;32.0;
56360;PMS7003;42611;51.132;13.588;2023-05-20T00:42:01;39.2;33.0;
56360;PMS7003;42611;51.132;13.588;2023-05-20T00:47:01;38.0;32.4;
56360;PMS7003;42611;51.132;13.588;2023-05-20T00:52:01;40.2;33.5;
56360;PMS7003;42611;51.132;13.588;2023-05-20T01:02:02;39.4;33.0;
56360;PMS7003;42611;51.132;13.588;2023-05-20T01:07:06;38.1;32.3;
56360;PMS7003;42611;51.132;13.588;2023-05-20T01:12:07;39.4;32.6;
56360;PMS7003;42611;51.132;13.588;2023-05-20T01:17:01;38.8;32.4;
56360;PMS7003;42611;51.132;13.588;2023-05-20T01:22:02;38.2;32.7;
56360;PMS7003;42611;51.132;13.588;2023-05-20T01:27:07;35.8;31.5;
56360;PMS7003;42611;51.132;13.588;2023-05-20T01:32:07;35.6;31.2;
56360;PMS7003;42611;51.132;13.588;2023-05-20T01:37:06;34.6;31.0;
56360;PMS7003;42611;51.132;13.588;2023-05-20T01:42:02;34.1;30.7;
56360;PMS7003;42611;51.132;13.588;2023-05-20T01:47:02;33.6;30.4;
56360;PMS7003;42611;51.132;13.588;2023-05-20T01:52:02;35.3;31.6;
56360;PMS7003;42611;51.132;13.588;2023-05-20T01:57:06;34.7;31.2;
56360;PMS7003;42611;51.132;13.588;2023-05-20T02:02:02;35.3;31.4;
56360;PMS7003;42611;51.132;13.588;2023-05-20T02:07:06;34.4;30.9;
56360;PMS7003;42611;51.132;13.588;2023-05-20T02:12:01;34.0;30.6;
56360;PMS7003;42611;51.132;13.588;2023-05-20T02:17:06;33.0;29.9;
56360;PMS7003;42611;51.132;13.588;2023-05-20T02:22:01;33.6;30.0;
56360;PMS7003;42611;51.132;13.588;2023-05-20T02:27:01;33.4;30.0;
56360;PMS7003;42611;51.132;13.588;2023-05-20T02:32:03;34.0;30.4;
56360;PMS7003;42611;51.132;13.588;2023-05-20T02:37:01;35.5;30.8;
56360;PMS7003;42611;51.132;13.588;2023-05-20T02:42:01;36.2;31.1;
56360;PMS7003;42611;51.132;13.588;2023-05-20T02:47:01;36.6;31.8;
56360;PMS7003;42611;51.132;13.588;2023-05-20T02:52:01;37.8;32.1;
56360;PMS7003;42611;51.132;13.588;2023-05-20T02:57:07;34.2;28.9;
56360;PMS7003;42611;51.132;13.588;2023-05-20T03:02:01;33.8;29.3;
56360;PMS7003;42611;51.132;13.588;2023-05-20T03:07:01;33.0;28.8;
56360;PMS7003;42611;51.132;13.588;2023-05-20T03:12:06;31.6;28.1;
56360;PMS7003;42611;51.132;13.588;2023-05-20T03:17:07;30.3;27.7;
56360;PMS7003;42611;51.132;13.588;2023-05-20T03:22:02;35.0;30.7;
56360;PMS7003;42611;51.132;13.588;2023-05-20T03:27:01;33.8;30.0;
56360;PMS7003;42611;51.132;13.588;2023-05-20T03:32:01;34.4;30.6;
56360;PMS7003;42611;51.132;13.588;2023-05-20T03:37:02;35.1;30.8;
56360;PMS7003;42611;51.132;13.588;2023-05-20T03:42:01;34.7;30.5;
56360;PMS7003;42611;51.132;13.588;2023-05-20T03:47:01;32.8;30.4;
56360;PMS7003;42611;51.132;13.588;2023-05-20T03:52:01;34.6;30.8;
56360;PMS7003;42611;51.132;13.588;2023-05-20T03:57:01;35.4;30.9;
56360;PMS7003;42611;51.132;13.588;2023-05-20T04:02:07;36.1;30.8;
56360;PMS7003;42611;51.132;13.588;2023-05-20T04:07:01;38.3;32.3;
56360;PMS7003;42611;51.132;13.588;2023-05-20T04:12:01;39.4;33.0;
56360;PMS7003;42611;51.132;13.588;2023-05-20T04:17:02;39.2;33.2;
56360;PMS7003;42611;51.132;13.588;2023-05-20T04:22:06;37.8;32.7;
56360;PMS7003;42611;51.132;13.588;2023-05-20T04:27:06;38.1;33.2;
56360;PMS7003;42611;51.132;13.588;2023-05-20T04:32:01;36.6;32.3;
56360;PMS7003;42611;51.132;13.588;2023-05-20T04:37:07;36.4;32.1;
56360;PMS7003;42611;51.132;13.588;2023-05-20T04:42:09;36.1;31.9;
56360;PMS7003;42611;51.132;13.588;2023-05-20T04:47:02;37.0;32.4;
56360;PMS7003;42611;51.132;13.588;2023-05-20T04:52:01;36.7;32.2;
56360;PMS7003;42611;51.132;13.588;2023-05-20T04:57:01;37.2;32.4;
56360;PMS7003;42611;51.132;13.588;2023-05-20T05:02:01;37.4;32.4;
56360;PMS7003;42611;51.132;13.588;2023-05-20T05:07:03;37.8;32.4;
56360;PMS7003;42611;51.132;13.588;2023-05-20T05:12:01;38.9;33.2;
56360;PMS7003;42611;51.132;13.588;2023-05-20T05:17:01;39.2;33.9;
56360;PMS7003;42611;51.132;13.588;2023-05-20T05:22:08;39.5;34.0;
56360;PMS7003;42611;51.132;13.588;2023-05-20T05:27:01;41.4;35.0;
56360;PMS7003;42611;51.132;13.588;2023-05-20T05:32:01;43.0;36.3;
56360;PMS7003;42611;51.132;13.588;2023-05-20T05:37:01;42.8;36.1;
56360;PMS7003;42611;51.132;13.588;2023-05-20T05:42:01;43.2;36.0;
56360;PMS7003;42611;51.132;13.588;2023-05-20T05:47:06;43.7;36.7;
56360;PMS7003;42611;51.132;13.588;2023-05-20T05:52:01;43.3;36.5;
56360;PMS7003;42611;51.132;13.588;2023-05-20T05:57:01;41.4;35.2;
56360;PMS7003;42611;51.132;13.588;2023-05-20T06:02:01;41.0;34.9;
56360;PMS7003;42611;51.132;13.588;2023-05-20T06:07:01;41.6;35.0;
56360;PMS7003;42611;51.132;13.588;2023-05-20T06:12:06;42.6;35.6;
56360;PMS7003;42611;51.132;13.588;2023-05-20T06:17:03;43.1;35.8;
56360;PMS7003;42611;51.132;13.588;2023-05-20T06:22:03;44.6;36.6;
56360;PMS7003;42611;51.132;13.588;2023-05-20T06:27:01;44.9;36.9;
56360;PMS7003;42611;51.132;13.588;2023-05-20T06:32:03;45.0;37.2;
56360;PMS7003;42611;51.132;13.588;2023-05-20T06:37:01;44.4;36.8;
56360;PMS7003;42611;51.132;13.588;2023-05-20T06:42:01;44.3;37.0;
56360;PMS7003;42611;51.132;13.588;2023-05-20T06:47:01;44.4;37.2;
56360;PMS7003;42611;51.132;13.588;2023-05-20T06:52:01;45.3;37.6;
56360;PMS7003;42611;51.132;13.588;2023-05-20T06:57:02;45.5;37.4;
56360;PMS7003;42611;51.132;13.588;2023-05-20T07:02:07;45.3;37.2;
56360;PMS7003;42611;51.132;13.588;2023-05-20T07:07:01;45.0;36.8;
56360;PMS7003;42611;51.132;13.588;2023-05-20T07:12:03;44.6;36.6;
56360;PMS7003;42611;51.132;13.588;2023-05-20T07:17:01;43.9;36.2;
56360;PMS7003;42611;51.132;13.588;2023-05-20T07:22:01;43.2;36.4;
56360;PMS7003;42611;51.132;13.588;2023-05-20T07:27:01;42.4;36.1;
56360;PMS7003;42611;51.132;13.588;2023-05-20T07:32:07;42.0;35.7;
56360;PMS7003;42611;51.132;13.588;2023-05-20T07:37:01;42.8;36.3;
56360;PMS7003;42611;51.132;13.588;2023-05-20T07:42:01;43.2;36.0;
56360;PMS7003;42611;51.132;13.588;2023-05-20T07:47:01;43.4;36.0;
56360;PMS7003;42611;51.132;13.588;2023-05-20T07:52:03;44.8;36.8;
56360;PMS7003;42611;51.132;13.588;2023-05-20T08:02:01;43.9;35.9;
56360;PMS7003;42611;51.132;13.588;2023-05-20T08:07:01;44.0;36.3;
56360;PMS7003;42611;51.132;13.588;2023-05-20T08:17:01;43.7;36.2;
56360;PMS7003;42611;51.132;13.588;2023-05-20T08:22:01;44.1;36.1;
56360;PMS7003;42611;51.132;13.588;2023-05-20T08:27:02;43.9;36.2;
56360;PMS7003;42611;51.132;13.588;2023-05-20T08:32:01;43.4;35.6;
56360;PMS7003;42611;51.132;13.588;2023-05-20T08:37:02;42.6;34.8;
56360;PMS7003;42611;51.132;13.588;2023-05-20T08:42:01;41.3;33.6;
56360;PMS7003;42611;51.132;13.588;2023-05-20T08:47:06;41.0;34.0;
56360;PMS7003;42611;51.132;13.588;2023-05-20T08:52:01;40.4;33.2;
56360;PMS7003;42611;51.132;13.588;2023-05-20T08:57:01;39.2;32.8;
56360;PMS7003;42611;51.132;13.588;2023-05-20T09:02:02;39.0;32.9;
56360;PMS7003;42611;51.132;13.588;2023-05-20T09:07:01;38.4;32.8;
56360;PMS7003;42611;51.132;13.588;2023-05-20T09:12:06;36.8;31.8;
56360;PMS7003;42611;51.132;13.588;2023-05-20T09:17:06;34.9;31.2;
56360;PMS7003;42611;51.132;13.588;2023-05-20T09:22:01;35.5;31.3;
56360;PMS7003;42611;51.132;13.588;2023-05-20T09:27:01;34.1;30.5;
56360;PMS7003;42611;51.132;13.588;2023-05-20T09:32:01;33.5;30.5;
56360;PMS7003;42611;51.132;13.588;2023-05-20T09:42:06;35.1;31.1;
56360;PMS7003;42611;51.132;13.588;2023-05-20T09:47:01;34.6;30.8;
56360;PMS7003;42611;51.132;13.588;2023-05-20T09:52:06;34.4;30.4;
56360;PMS7003;42611;51.132;13.588;2023-05-20T10:02:01;34.7;30.8;
56360;PMS7003;42611;51.132;13.588;2023-05-20T10:07:08;34.5;30.7;
56360;PMS7003;42611;51.132;13.588;2023-05-20T10:12:20;34.1;30.8;
56360;PMS7003;42611;51.132;13.588;2023-05-20T10:17:04;34.6;31.3;
56360;PMS7003;42611;51.132;13.588;2023-05-20T10:22:02;33.8;30.8;
56360;PMS7003;42611;51.132;13.588;2023-05-20T10:27:02;34.1;30.6;
56360;PMS7003;42611;51.132;13.588;2023-05-20T10:32:01;34.8;31.0;
56360;PMS7003;42611;51.132;13.588;2023-05-20T10:37:01;34.1;30.6;
56360;PMS7003;42611;51.132;13.588;2023-05-20T10:42:08;35.3;31.2;
56360;PMS7003;42611;51.132;13.588;2023-05-20T10:47:16;36.0;31.4;
56360;PMS7003;42611;51.132;13.588;2023-05-20T10:52:01;35.9;31.6;
56360;PMS7003;42611;51.132;13.588;2023-05-20T10:57:05;34.6;30.8;
56360;PMS7003;42611;51.132;13.588;2023-05-20T11:02:01;34.8;30.9;
56360;PMS7003;42611;51.132;13.588;2023-05-20T11:07:02;33.2;30.2;
56360;PMS7003;42611;51.132;13.588;2023-05-20T11:12:06;33.0;30.0;
56360;PMS7003;42611;51.132;13.588;2023-05-20T11:17:07;31.8;29.3;
56360;PMS7003;42611;51.132;13.588;2023-05-20T11:22:01;31.5;29.2;
56360;PMS7003;42611;51.132;13.588;2023-05-20T11:27:01;30.2;28.2;
56360;PMS7003;42611;51.132;13.588;2023-05-20T11:32:01;30.3;28.0;
56360;PMS7003;42611;51.132;13.588;2023-05-20T11:37:01;30.0;27.6;
56360;PMS7003;42611;51.132;13.588;2023-05-20T11:43:09;29.4;27.2;
56360;PMS7003;42611;51.132;13.588;2023-05-20T11:48:02;27.6;25.9;
56360;PMS7003;42611;51.132;13.588;2023-05-20T11:53:02;27.8;26.0;
56360;PMS7003;42611;51.132;13.588;2023-05-20T11:58:06;27.6;25.8;
56360;PMS7003;42611;51.132;13.588;2023-05-20T12:08:02;28.4;26.3;
56360;PMS7003;42611;51.132;13.588;2023-05-20T12:13:01;29.1;26.8;
56360;PMS7003;42611;51.132;13.588;2023-05-20T12:18:01;28.9;26.7;
56360;PMS7003;42611;51.132;13.588;2023-05-20T12:23:01;28.2;26.3;
56360;PMS7003;42611;51.132;13.588;2023-05-20T12:28:01;28.7;26.6;
56360;PMS7003;42611;51.132;13.588;2023-05-20T12:33:01;27.5;25.5;
56360;PMS7003;42611;51.132;13.588;2023-05-20T12:38:06;27.0;24.9;
56360;PMS7003;42611;51.132;13.588;2023-05-20T12:43:02;26.7;24.8;
56360;PMS7003;42611;51.132;13.588;2023-05-20T12:53:06;25.4;24.5;
56360;PMS7003;42611;51.132;13.588;2023-05-20T12:58:06;25.8;24.8;
56360;PMS7003;42611;51.132;13.588;2023-05-20T13:03:01;26.5;25.3;
56360;PMS7003;42611;51.132;13.588;2023-05-20T13:08:06;27.0;25.4;
56360;PMS7003;42611;51.132;13.588;2023-05-20T13:13:01;25.8;23.6;
56360;PMS7003;42611;51.132;13.588;2023-05-20T13:18:03;26.8;23.8;
56360;PMS7003;42611;51.132;13.588;2023-05-20T13:23:01;27.0;24.0;
56360;PMS7003;42611;51.132;13.588;2023-05-20T13:28:03;26.7;24.4;
56360;PMS7003;42611;51.132;13.588;2023-05-20T13:33:01;26.2;24.4;
56360;PMS7003;42611;51.132;13.588;2023-05-20T13:38:01;27.2;25.7;
56360;PMS7003;42611;51.132;13.588;2023-05-20T13:43:06;26.7;25.8;
56360;PMS7003;42611;51.132;13.588;2023-05-20T13:48:02;26.4;25.8;
56360;PMS7003;42611;51.132;13.588;2023-05-20T13:53:07;26.8;25.4;
56360;PMS7003;42611;51.132;13.588;2023-05-20T13:58:01;27.0;25.4;
56360;PMS7003;42611;51.132;13.588;2023-05-20T14:03:06;27.1;25.6;
56360;PMS7003;42611;51.132;13.588;2023-05-20T14:08:01;27.6;25.6;
56360;PMS7003;42611;51.132;13.588;2023-05-20T14:13:03;27.2;24.8;
56360;PMS7003;42611;51.132;13.588;2023-05-20T14:18:01;25.9;24.2;
56360;PMS7003;42611;51.132;13.588;2023-05-20T14:23:02;25.4;23.2;
56360;PMS7003;42611;51.132;13.588;2023-05-20T14:28:06;24.9;22.6;
56360;PMS7003;42611;51.132;13.588;2023-05-20T14:33:02;24.7;22.7;
56360;PMS7003;42611;51.132;13.588;2023-05-20T14:38:06;25.2;23.7;
56360;PMS7003;42611;51.132;13.588;2023-05-20T14:43:01;26.4;24.6;
56360;PMS7003;42611;51.132;13.588;2023-05-20T14:48:01;26.1;25.0;
56360;PMS7003;42611;51.132;13.588;2023-05-20T14:53:07;26.6;25.6;
56360;PMS7003;42611;51.132;13.588;2023-05-20T14:58:01;27.1;25.7;
56360;PMS7003;42611;51.132;13.588;2023-05-20T15:03:07;27.8;25.5;
56360;PMS7003;42611;51.132;13.588;2023-05-20T15:08:01;27.4;25.1;
56360;PMS7003;42611;51.132;13.588;2023-05-20T15:13:01;28.4;25.9;
56360;PMS7003;42611;51.132;13.588;2023-05-20T15:18:06;28.2;25.9;
56360;PMS7003;42611;51.132;13.588;2023-05-20T15:23:02;27.1;25.5;
56360;PMS7003;42611;51.132;13.588;2023-05-20T15:28:02;26.4;25.6;
56360;PMS7003;42611;51.132;13.588;2023-05-20T15:33:07;27.4;26.1;
56360;PMS7003;42611;51.132;13.588;2023-05-20T15:38:06;26.9;25.5;
56360;PMS7003;42611;51.132;13.588;2023-05-20T15:43:01;26.8;25.2;
56360;PMS7003;42611;51.132;13.588;2023-05-20T15:48:07;26.6;24.3;
56360;PMS7003;42611;51.132;13.588;2023-05-20T15:53:06;26.0;23.6;
56360;PMS7003;42611;51.132;13.588;2023-05-20T15:58:06;24.6;22.7;
56360;PMS7003;42611;51.132;13.588;2023-05-20T16:03:06;25.2;23.4;
56360;PMS7003;42611;51.132;13.588;2023-05-20T16:08:01;25.3;23.4;
56360;PMS7003;42611;51.132;13.588;2023-05-20T16:13:06;26.1;24.4;
56360;PMS7003;42611;51.132;13.588;2023-05-20T16:18:01;27.6;25.8;
56360;PMS7003;42611;51.132;13.588;2023-05-20T16:23:06;28.4;26.8;
56360;PMS7003;42611;51.132;13.588;2023-05-20T16:28:01;28.1;26.2;
56360;PMS7003;42611;51.132;13.588;2023-05-20T16:33:07;29.0;27.1;
56360;PMS7003;42611;51.132;13.588;2023-05-20T16:38:07;29.2;27.5;
56360;PMS7003;42611;51.132;13.588;2023-05-20T16:43:06;28.3;27.0;
56360;PMS7003;42611;51.132;13.588;2023-05-20T16:48:01;28.7;27.0;
56360;PMS7003;42611;51.132;13.588;2023-05-20T16:53:06;30.4;28.3;
56360;PMS7003;42611;51.132;13.588;2023-05-20T16:58:01;30.3;28.4;
56360;PMS7003;42611;51.132;13.588;2023-05-20T17:03:01;30.6;28.5;
56360;PMS7003;42611;51.132;13.588;2023-05-20T17:08:06;31.4;28.7;
56360;PMS7003;42611;51.132;13.588;2023-05-20T17:13:06;30.2;27.8;
56360;PMS7003;42611;51.132;13.588;2023-05-20T17:18:01;29.0;27.2;
56360;PMS7003;42611;51.132;13.588;2023-05-20T17:23:06;28.0;26.6;
56360;PMS7003;42611;51.132;13.588;2023-05-20T17:28:01;28.5;26.6;
56360;PMS7003;42611;51.132;13.588;2023-05-20T17:33:07;28.7;26.9;
56360;PMS7003;42611;51.132;13.588;2023-05-20T17:38:06;29.7;27.5;
56360;PMS7003;42611;51.132;13.588;2023-05-20T17:43:06;29.6;27.0;
56360;PMS7003;42611;51.132;13.588;2023-05-20T17:48:01;29.5;26.9;
56360;PMS7003;42611;51.132;13.588;2023-05-20T17:53:01;27.9;26.4;
56360;PMS7003;42611;51.132;13.588;2023-05-20T17:58:02;27.5;26.0;
56360;PMS7003;42611;51.132;13.588;2023-05-20T18:03:02;26.4;25.5;
56360;PMS7003;42611;51.132;13.588;2023-05-20T18:08:06;25.8;25.1;
56360;PMS7003;42611;51.132;13.588;2023-05-20T18:13:01;25.1;24.3;
56360;PMS7003;42611;51.132;13.588;2023-05-20T18:28:01;26.2;24.7;
56360;PMS7003;42611;51.132;13.588;2023-05-20T18:33:01;27.0;25.7;
56360;PMS7003;42611;51.132;13.588;2023-05-20T18:38:06;29.0;27.2;
56360;PMS7003;42611;51.132;13.588;2023-05-20T18:43:06;29.7;28.0;
56360;PMS7003;42611;51.132;13.588;2023-05-20T18:48:01;29.4;27.9;
56360;PMS7003;42611;51.132;13.588;2023-05-20T18:53:01;29.2;27.8;
56360;PMS7003;42611;51.132;13.588;2023-05-20T18:58:06;29.3;27.7;
56360;PMS7003;42611;51.132;13.588;2023-05-20T19:03:02;29.0;27.7;
56360;PMS7003;42611;51.132;13.588;2023-05-20T19:13:06;29.8;27.9;
56360;PMS7003;42611;51.132;13.588;2023-05-20T19:18:01;30.6;28.6;
56360;PMS7003;42611;51.132;13.588;2023-05-20T19:23:03;31.2;29.1;
56360;PMS7003;42611;51.132;13.588;2023-05-20T19:28:01;31.5;29.2;
56360;PMS7003;42611;51.132;13.588;2023-05-20T19:33:06;32.4;29.6;
56360;PMS7003;42611;51.132;13.588;2023-05-20T19:38:01;33.4;29.8;
56360;PMS7003;42611;51.132;13.588;2023-05-20T19:43:01;33.5;29.8;
56360;PMS7003;42611;51.132;13.588;2023-05-20T19:48:02;32.8;29.3;
56360;PMS7003;42611;51.132;13.588;2023-05-20T19:53:01;33.0;29.4;
56360;PMS7003;42611;51.132;13.588;2023-05-20T19:58:06;32.9;29.6;
56360;PMS7003;42611;51.132;13.588;2023-05-20T20:03:02;32.2;29.6;
56360;PMS7003;42611;51.132;13.588;2023-05-20T20:08:01;32.1;29.6;
56360;PMS7003;42611;51.132;13.588;2023-05-20T20:13:06;33.3;30.1;
56360;PMS7003;42611;51.132;13.588;2023-05-20T20:18:01;34.4;30.8;
56360;PMS7003;42611;51.132;13.588;2023-05-20T20:23:01;34.5;30.5;
56360;PMS7003;42611;51.132;13.588;2023-05-20T20:28:06;35.5;30.7;
56360;PMS7003;42611;51.132;13.588;2023-05-20T20:33:02;37.1;31.8;
56360;PMS7003;42611;51.132;13.588;2023-05-20T20:38:01;37.6;32.4;
56360;PMS7003;42611;51.132;13.588;2023-05-20T20:43:01;38.7;33.0;
56360;PMS7003;42611;51.132;13.588;2023-05-20T20:48:07;40.8;34.0;
56360;PMS7003;42611;51.132;13.588;2023-05-20T20:53:01;41.0;33.9;
56360;PMS7003;42611;51.132;13.588;2023-05-20T20:58:03;41.6;34.5;
56360;PMS7003;42611;51.132;13.588;2023-05-20T21:08:01;40.4;33.5;
56360;PMS7003;42611;51.132;13.588;2023-05-20T21:13:06;39.9;33.6;
56360;PMS7003;42611;51.132;13.588;2023-05-20T21:18:06;41.0;34.7;
56360;PMS7003;42611;51.132;13.588;2023-05-20T21:23:06;40.2;34.0;
56360;PMS7003;42611;51.132;13.588;2023-05-20T21:28:01;41.8;34.8;
56360;PMS7003;42611;51.132;13.588;2023-05-20T21:33:01;42.2;34.9;
56360;PMS7003;42611;51.132;13.588;2023-05-20T21:38:01;41.2;34.5;
56360;PMS7003;42611;51.132;13.588;2023-05-20T21:43:06;40.2;33.8;
56360;PMS7003;42611;51.132;13.588;2023-05-20T21:48:06;40.0;33.6;
56360;PMS7003;42611;51.132;13.588;2023-05-20T21:53:01;39.2;33.2;
56360;PMS7003;42611;51.132;13.588;2023-05-20T21:58:02;38.8;33.3;
56360;PMS7003;42611;51.132;13.588;2023-05-20T22:03:01;38.5;32.9;
56360;PMS7003;42611;51.132;13.588;2023-05-20T22:08:01;39.9;33.9;
56360;PMS7003;42611;51.132;13.588;2023-05-20T22:13:01;40.2;34.1;
56360;PMS7003;42611;51.132;13.588;2023-05-20T22:23:06;40.1;34.5;
56360;PMS7003;42611;51.132;13.588;2023-05-20T22:28:01;41.7;35.2;
56360;PMS7003;42611;51.132;13.588;2023-05-20T22:33:01;40.3;34.4;
56360;PMS7003;42611;51.132;13.588;2023-05-20T22:38:01;41.2;35.2;
56360;PMS7003;42611;51.132;13.588;2023-05-20T22:43:01;39.0;33.9;
56360;PMS7003;42611;51.132;13.588;2023-05-20T22:48:02;42.0;35.6;
56360;PMS7003;42611;51.132;13.588;2023-05-20T22:53:01;43.0;36.4;
56360;PMS7003;42611;51.132;13.588;2023-05-20T22:58:06;44.1;36.9;
56360;PMS7003;42611;51.132;13.588;2023-05-20T23:03:02;44.8;37.3;
56360;PMS7003;42611;51.132;13.588;2023-05-20T23:08:01;46.4;38.4;
56360;PMS7003;42611;51.132;13.588;2023-05-20T23:13:01;46.1;38.2;
56360;PMS7003;42611;51.132;13.588;2023-05-20T23:18:01;46.0;38.4;
56360;PMS7003;42611;51.132;13.588;2023-05-20T23:23:12;45.8;38.6;
56360;PMS7003;42611;51.132;13.588;2023-05-20T23:28:01;44.9;38.0;
56360;PMS7003;42611;51.132;13.588;2023-05-20T23:33:01;46.7;39.1;
56360;PMS7003;42611;51.132;13.588;2023-05-20T23:38:02;46.3;38.8;
56360;PMS7003;42611;51.132;13.588;2023-05-20T23:43:01;45.4;38.0;
56360;PMS7003;42611;51.132;13.588;2023-05-20T23:53:01;46.2;38.4;
56360;PMS7003;42611;51.132;13.588;2023-05-20T23:58:01;44.6;37.2;
